岡山グライダークラブ活動状況掲示板

岡山グライダークラブ
岡山市浦安南町639-1 岡南飛行場
 使用機:シャイベ式 SF25C型 ファルケ   JA2330
      ヴァレンティン式17E型 タイフーン  JA2342
 練習日:毎日曜日  クラブルーム:電話 086-265-1810
この掲示板は岡山グライダークラブの活動状況をお知らせする掲示板です。
!!!この掲示板は投稿規制をしています。!!!
クラブ関連各種情報は 岡山グライダークラブクラブルーム      を       .
  ブリーフイング情報は  岡山グライダークラブブリーフィングルーム  をご覧下さい。 .
※写真はクリックすると拡大して見ることが出来ます。
岡南飛行場へのアクセス等は 岡南飛行場管理事務所 をご覧ください。
クラブの ホームページ ができました。

!!!最近のコロナ感染拡大に伴い、当面の間、見学者等の受入を中止しております。再開まで今しばらくお待ちください!!!

 
05月23日
by OGC at 2021/5/23(日) 11:10:47 No.20210523110802  削除コメント
1032 x 768 x 32,211バイト  <この画像は大きいので別画面で表示します>
No.1

05月23日
本日のリモート参加者
  会員       8名
  その他      0名


@本日の様子






METAR
RJBK 230000Z 26006KT 220V300 20KM FEW030CU 22/15 Q1011 A2986
RJOB 230000Z 24005KT 210V290 CAVOK 21/14 Q1011
RJOT 230000Z 26010KT CAVOK 21/13 Q1012
RJOA 230000Z VRB02KT CAVOK 19/15 Q1012

TAF
RJOB 222305Z 2300/2406 26005KT 9999 FEW025
  BECMG 2315/2318 04004KT
  BECMG 2400/2403 17005KT
RJOT 222309Z 2300/2406 27008KT 9999 FEW030
  BECMG 2318/2321 13004KT
RJOA 222306Z 2300/2406 30004KT 9999 FEW030 SCT045
  BECMG 2301/2303 17006KT
  BECMG 2307/2309 32004KT


本日、第10回リモートブリーフィングを開催しました。
勉強会では、TCASについて講義がありました。

集合 10:00 解散    11:00

本日のフライトはありません。

    << 戻る || ホームページ || 最新の掲示板へ